Time;durP1;ratioP1;P1;durP2;ratioP2;P2;SDS_P1;SDS_P2;PMS_P1;PMS_P2;Temp;Humidity;BMP_temperature;BMP_pressure;BME280_temperature;BME280_humidity;BME280_pressure;Samples;Min_cycle;Max_cycle;Signal;HPM_P1;HPM_P2
2024/02/08 00:00:30;;;;;;;1.27;0.65;;;9.90;99.90;;;;;;5050186;28;20552;-87
2024/02/08 00:02:57;;;;;;;0.60;0.60;;;10.30;99.90;;;;;;5050152;28;20037;-87
2024/02/08 00:05:22;;;;;;;1.30;0.60;;;10.00;99.90;;;;;;5035352;28;20033;-86
2024/02/08 00:07:48;;;;;;;1.98;0.88;;;10.00;99.90;;;;;;5053558;28;20016;-90
2024/02/08 00:10:14;;;;;;;0.98;0.65;;;10.10;99.90;;;;;;5050587;28;20025;-88
2024/02/08 00:12:40;;;;;;;3.47;0.60;;;10.10;99.90;;;;;;5044411;28;20405;-88
2024/02/08 00:15:07;;;;;;;1.85;0.70;;;10.10;99.90;;;;;;5042923;28;20025;-87
2024/02/08 00:17:32;;;;;;;1.35;0.80;;;10.10;99.90;;;;;;5043426;28;20041;-88
2024/02/08 00:19:58;;;;;;;1.95;0.80;;;10.10;99.90;;;;;;5042431;28;20021;-87
2024/02/08 00:22:25;;;;;;;0.75;0.70;;;10.00;99.90;;;;;;5060864;28;20032;-89
2024/02/08 00:24:53;;;;;;;1.17;0.70;;;10.10;99.90;;;;;;5060256;28;20078;-88
2024/02/08 00:27:19;;;;;;;0.80;0.70;;;10.10;99.90;;;;;;5060521;28;20028;-89
2024/02/08 00:29:45;;;;;;;1.88;1.13;;;10.10;99.90;;;;;;5043722;28;20032;-89
2024/02/08 00:32:11;;;;;;;1.63;0.90;;;10.10;99.90;;;;;;5043507;28;20033;-88
2024/02/08 00:34:38;;;;;;;1.85;0.82;;;10.10;99.90;;;;;;5047520;28;20100;-88
2024/02/08 00:37:08;;;;;;;0.82;0.70;;;10.10;99.90;;;;;;5024983;28;20045;-90
2024/02/08 00:39:34;;;;;;;0.70;0.55;;;10.10;99.90;;;;;;5028023;28;20063;-87
2024/02/08 00:42:00;;;;;;;1.02;0.70;;;10.20;99.90;;;;;;5055932;28;20026;-90
2024/02/08 00:44:27;;;;;;;1.05;0.70;;;10.10;99.90;;;;;;5044959;28;20114;-88
2024/02/08 00:46:53;;;;;;;0.85;0.60;;;10.10;99.90;;;;;;5041537;28;20033;-88
2024/02/08 00:49:21;;;;;;;6.10;0.82;;;10.10;99.90;;;;;;5063543;28;20768;-88
2024/02/08 00:51:49;;;;;;;0.52;0.50;;;10.10;99.90;;;;;;5059806;28;20043;-89
2024/02/08 00:54:15;;;;;;;2.65;0.60;;;10.10;99.90;;;;;;5039398;28;20768;-89
2024/02/08 00:56:42;;;;;;;0.60;0.60;;;10.20;99.90;;;;;;5047619;28;20025;-89
2024/02/08 00:59:10;;;;;;;0.90;0.68;;;10.20;99.90;;;;;;5058885;28;20048;-87
2024/02/08 01:01:39;;;;;;;1.60;0.60;;;10.20;99.90;;;;;;5041979;28;20485;-86
2024/02/08 01:04:05;;;;;;;1.10;0.70;;;10.30;99.90;;;;;;5040681;28;20025;-88
2024/02/08 01:06:31;;;;;;;1.88;0.63;;;10.20;99.90;;;;;;5045524;28;20484;-88
2024/02/08 01:08:56;;;;;;;1.13;0.60;;;10.20;99.90;;;;;;5049159;28;20349;-89
2024/02/08 01:11:22;;;;;;;1.60;0.55;;;10.30;99.90;;;;;;5055885;28;20053;-87
2024/02/08 01:13:49;;;;;;;0.70;0.60;;;10.30;99.90;;;;;;5044198;28;20029;-84
2024/02/08 01:16:15;;;;;;;1.15;0.70;;;10.30;99.90;;;;;;5055296;28;20140;-88
2024/02/08 01:18:41;;;;;;;0.82;0.60;;;10.40;99.90;;;;;;5040267;28;20024;-89
2024/02/08 01:21:12;;;;;;;0.80;0.50;;;10.30;99.90;;;;;;5041435;28;20397;-89
2024/02/08 01:23:39;;;;;;;1.48;0.70;;;10.40;99.90;;;;;;5037146;28;20021;-87
2024/02/08 01:26:04;;;;;;;0.60;0.60;;;10.40;99.90;;;;;;5063199;28;20032;-88
2024/02/08 01:28:30;;;;;;;0.90;0.65;;;10.80;99.90;;;;;;5042197;28;20028;-86
2024/02/08 01:30:56;;;;;;;1.10;0.70;;;10.40;99.90;;;;;;5047100;28;20040;-88
2024/02/08 01:33:21;;;;;;;0.80;0.57;;;10.20;99.90;;;;;;5044709;28;20035;-88
2024/02/08 01:35:47;;;;;;;1.55;0.75;;;10.20;99.90;;;;;;5048685;28;20039;-87
2024/02/08 01:38:16;;;;;;;1.13;0.70;;;10.20;99.90;;;;;;5038242;28;20478;-87
2024/02/08 01:40:42;;;;;;;2.63;0.75;;;10.20;99.90;;;;;;5035879;28;20508;-87
2024/02/08 01:43:10;;;;;;;1.75;0.60;;;10.20;99.90;;;;;;5057831;28;20036;-88
2024/02/08 01:45:38;;;;;;;1.42;0.80;;;10.40;99.90;;;;;;5051118;28;20025;-87
2024/02/08 01:48:15;;;;;;;0.52;0.52;;;10.20;99.90;;;;;;5038927;28;20129;-89
2024/02/08 01:50:56;;;;;;;1.13;0.70;;;10.30;99.90;;;;;;5041721;28;20021;-90
2024/02/08 01:53:32;;;;;;;0.70;0.60;;;10.50;99.90;;;;;;5040166;28;20029;-87
2024/02/08 01:56:00;;;;;;;0.77;0.60;;;10.30;99.90;;;;;;5040534;28;20036;-89
2024/02/08 01:58:26;;;;;;;1.33;0.80;;;10.20;99.90;;;;;;5041308;28;20050;-88
2024/02/08 02:00:55;;;;;;;0.80;0.60;;;10.70;99.90;;;;;;5034387;28;20646;-89
2024/02/08 02:03:23;;;;;;;0.75;0.50;;;10.20;99.90;;;;;;5038354;28;20037;-87
2024/02/08 02:05:49;;;;;;;1.75;0.70;;;10.20;99.90;;;;;;5047380;28;20098;-89
2024/02/08 02:08:18;;;;;;;1.10;0.55;;;10.20;99.90;;;;;;5046755;28;20032;-89
2024/02/08 02:10:54;;;;;;;1.00;0.77;;;10.20;99.90;;;;;;5040566;28;20031;-90
2024/02/08 02:13:20;;;;;;;1.20;0.88;;;10.20;99.90;;;;;;5040074;28;20025;-89
2024/02/08 02:15:46;;;;;;;1.92;1.17;;;10.10;99.90;;;;;;5045168;28;20404;-90
2024/02/08 02:18:12;;;;;;;1.65;0.98;;;10.50;99.90;;;;;;5044031;28;20028;-87
2024/02/08 02:20:38;;;;;;;1.55;0.95;;;10.50;99.90;;;;;;5048144;28;20042;-88
2024/02/08 02:23:04;;;;;;;1.58;1.00;;;10.20;99.90;;;;;;5051533;28;20025;-87
2024/02/08 02:25:34;;;;;;;1.90;1.20;;;10.20;99.90;;;;;;5050225;28;20389;-87
2024/02/08 02:28:01;;;;;;;1.85;1.02;;;10.20;99.90;;;;;;5049470;28;20028;-88
2024/02/08 02:30:28;;;;;;;1.75;0.82;;;10.20;99.90;;;;;;5061460;28;20033;-88
2024/02/08 02:33:00;;;;;;;2.00;1.10;;;11.50;99.90;;;;;;5046599;28;20056;-86
2024/02/08 02:35:28;;;;;;;1.52;0.80;;;10.20;99.90;;;;;;5052432;28;20021;-88
2024/02/08 02:37:54;;;;;;;2.10;1.15;;;10.20;99.90;;;;;;5043813;28;20029;-87
2024/02/08 02:40:23;;;;;;;1.13;0.80;;;10.20;99.90;;;;;;5063644;28;20017;-86
2024/02/08 02:42:52;;;;;;;1.58;1.00;;;10.20;99.90;;;;;;5044452;28;20110;-87
2024/02/08 02:45:23;;;;;;;1.33;1.08;;;10.20;99.90;;;;;;5065549;28;20029;-86
2024/02/08 02:47:56;;;;;;;2.45;1.10;;;10.20;99.90;;;;;;5042232;28;20037;-87
2024/02/08 02:50:25;;;;;;;1.92;1.15;;;10.80;99.90;;;;;;5050962;28;20047;-86
2024/02/08 02:52:51;;;;;;;2.28;1.50;;;9.80;99.90;;;;;;5047148;28;20092;-86
2024/02/08 02:55:18;;;;;;;2.95;1.50;;;10.20;99.90;;;;;;5072130;28;20040;-88
2024/02/08 02:57:43;;;;;;;2.85;1.30;;;10.30;99.90;;;;;;5058344;28;20057;-87
2024/02/08 03:00:23;;;;;;;2.30;1.27;;;10.20;99.90;;;;;;5055180;28;20050;-86
2024/02/08 03:02:50;;;;;;;3.20;1.50;;;10.10;99.90;;;;;;5023553;28;20117;-87
2024/02/08 03:05:17;;;;;;;2.08;1.40;;;10.40;99.90;;;;;;5024767;28;20101;-88
2024/02/08 03:07:45;;;;;;;2.85;1.38;;;10.10;99.90;;;;;;5052015;28;20104;-86
2024/02/08 03:10:12;;;;;;;1.70;1.30;;;10.20;99.90;;;;;;5046705;28;20089;-87
2024/02/08 03:12:38;;;;;;;2.00;1.20;;;10.20;99.90;;;;;;5033081;28;20010;-88
2024/02/08 03:15:09;;;;;;;1.27;0.93;;;10.20;99.90;;;;;;5033781;28;20067;-90
2024/02/08 03:17:35;;;;;;;1.50;0.93;;;10.20;99.90;;;;;;5022113;28;20036;-87
2024/02/08 03:20:04;;;;;;;1.45;1.05;;;10.20;99.90;;;;;;5029428;28;20034;-88
2024/02/08 03:22:34;;;;;;;1.40;0.90;;;10.20;99.90;;;;;;5031852;28;20091;-88
2024/02/08 03:25:04;;;;;;;1.10;0.90;;;10.20;99.90;;;;;;5020957;28;20032;-88
2024/02/08 03:27:32;;;;;;;1.30;0.98;;;10.20;99.90;;;;;;5024101;28;20108;-88
2024/02/08 03:29:59;;;;;;;1.33;0.80;;;10.20;99.90;;;;;;5037254;28;20486;-86
2024/02/08 03:32:27;;;;;;;0.90;0.70;;;10.10;99.90;;;;;;5028119;28;20032;-89
2024/02/08 03:34:53;;;;;;;1.85;0.77;;;10.40;99.90;;;;;;5025659;28;20036;-89
2024/02/08 03:37:22;;;;;;;0.80;0.70;;;10.20;99.90;;;;;;5005685;28;20029;-88
2024/02/08 03:39:47;;;;;;;0.77;0.60;;;10.30;99.90;;;;;;5026081;28;20569;-89
2024/02/08 03:42:16;;;;;;;1.55;0.70;;;10.40;99.90;;;;;;5015556;28;20065;-88
2024/02/08 03:44:43;;;;;;;1.88;0.88;;;10.30;99.90;;;;;;5016891;28;20088;-87
2024/02/08 03:47:08;;;;;;;1.48;0.85;;;10.30;99.90;;;;;;5020999;28;20059;-89
2024/02/08 03:49:35;;;;;;;1.42;1.00;;;10.30;99.90;;;;;;5036192;28;20509;-88
2024/02/08 03:52:01;;;;;;;1.33;1.00;;;10.30;99.90;;;;;;5021712;28;20030;-89
2024/02/08 03:54:30;;;;;;;1.98;0.90;;;10.20;99.90;;;;;;5020976;28;20029;-87
2024/02/08 03:56:59;;;;;;;2.55;1.15;;;10.30;99.90;;;;;;5021463;28;20504;-88
2024/02/08 03:59:28;;;;;;;1.88;1.20;;;10.40;99.90;;;;;;5020259;28;20029;-88
2024/02/08 04:02:00;;;;;;;4.53;2.03;;;10.30;99.90;;;;;;5021426;28;20040;-88
2024/02/08 04:04:29;;;;;;;4.30;1.80;;;10.30;99.90;;;;;;5036465;28;20017;-88
2024/02/08 04:07:18;;;;;;;4.40;2.13;;;11.10;99.90;;;;;;5038706;28;20115;-89
2024/02/08 04:09:50;;;;;;;4.55;2.10;;;10.20;99.90;;;;;;5040178;28;20032;-87
2024/02/08 04:53:44;;;;;;;3.47;2.00;;;10.30;99.90;;;;;;5093365;22;20134;-88
2024/02/08 04:56:11;;;;;;;;;;;10.40;99.90;;;;;;5073246;28;20032;-87
2024/02/08 04:58:41;;;;;;;4.50;2.10;;;10.80;99.90;;;;;;5066971;28;19980;-87
2024/02/08 05:01:11;;;;;;;3.13;1.98;;;10.20;99.90;;;;;;5069207;28;20015;-88
2024/02/08 05:03:38;;;;;;;2.38;1.50;;;11.30;99.90;;;;;;5067448;28;20044;-90
2024/02/08 05:06:11;;;;;;;4.47;2.17;;;11.70;99.90;;;;;;5070615;27;20024;-88
2024/02/08 05:08:38;;;;;;;3.00;1.75;;;11.10;99.90;;;;;;5067819;28;20009;-88
2024/02/08 05:11:07;;;;;;;3.35;1.83;;;10.20;99.90;;;;;;5071223;28;20105;-87
2024/02/08 05:13:33;;;;;;;4.60;1.70;;;10.20;99.90;;;;;;5067996;27;20015;-87
2024/02/08 05:15:59;;;;;;;3.50;1.65;;;10.80;99.90;;;;;;5070987;28;20092;-87
2024/02/08 05:18:28;;;;;;;5.03;1.75;;;10.30;99.90;;;;;;5084967;27;20012;-87
2024/02/08 05:20:57;;;;;;;3.45;1.70;;;11.20;99.90;;;;;;5084767;27;20020;-88
2024/02/08 05:23:25;;;;;;;3.80;1.92;;;10.30;99.90;;;;;;5088063;27;20013;-86
2024/02/08 05:25:52;;;;;;;3.85;2.20;;;10.30;99.90;;;;;;5064619;28;20025;-90
2024/02/08 05:28:18;;;;;;;4.15;1.98;;;11.40;99.90;;;;;;5084414;27;20048;-88
2024/02/08 05:30:44;;;;;;;4.07;2.00;;;10.40;99.90;;;;;;5069987;27;20031;-88
2024/02/08 05:33:11;;;;;;;3.28;2.00;;;11.60;99.90;;;;;;5066586;28;20025;-86
2024/02/08 05:35:39;;;;;;;3.95;2.25;;;10.50;99.90;;;;;;5070565;28;20021;-89
2024/02/08 05:38:08;;;;;;;4.28;2.45;;;11.60;99.90;;;;;;5076736;27;20079;-87
2024/02/08 05:40:33;;;;;;;5.22;2.40;;;10.40;99.90;;;;;;5089954;27;20017;-87
2024/02/08 05:42:59;;;;;;;4.78;2.83;;;10.80;99.90;;;;;;5074666;28;20032;-86
2024/02/08 05:45:30;;;;;;;4.57;2.88;;;10.40;99.90;;;;;;5077498;27;20029;-88
2024/02/08 10:00:10;;;;;;;9.85;2.25;;;10.70;99.90;;;;;;5106127;28;20047;-89
2024/02/08 10:02:54;;;;;;;2.22;1.70;;;10.70;99.90;;;;;;5109778;28;20015;-88
2024/02/08 10:05:28;;;;;;;2.85;1.60;;;10.80;99.90;;;;;;5105526;28;20051;-88
2024/02/08 10:08:09;;;;;;;3.92;1.63;;;10.90;99.90;;;;;;5103274;28;20013;-89
2024/02/08 10:10:56;;;;;;;3.80;2.00;;;11.50;99.90;;;;;;5107788;28;20016;-89
2024/02/08 10:13:30;;;;;;;2.67;2.00;;;10.90;99.90;;;;;;5100495;28;20012;-88
2024/02/08 10:15:58;;;;;;;3.88;2.50;;;12.50;99.90;;;;;;5103092;28;20120;-89
2024/02/08 10:18:37;;;;;;;3.42;2.33;;;11.00;99.90;;;;;;5105320;28;20033;-89
2024/02/08 10:21:13;;;;;;;3.60;2.13;;;11.40;99.90;;;;;;5098354;28;20017;-89
2024/02/08 10:23:59;;;;;;;3.30;2.20;;;11.10;99.90;;;;;;5123738;27;20034;-89
2024/02/08 10:26:38;;;;;;;2.50;1.73;;;12.20;99.90;;;;;;5123863;27;20027;-91
2024/02/08 10:29:07;;;;;;;3.88;2.38;;;11.20;99.90;;;;;;5106163;28;20008;-89
2024/02/08 10:31:37;;;;;;;5.07;2.95;;;11.70;99.90;;;;;;5111485;28;20199;-89
2024/02/08 10:34:09;;;;;;;4.50;2.40;;;11.50;99.90;;;;;;5108989;28;20050;-89
2024/02/08 10:36:39;;;;;;;4.90;2.30;;;11.40;99.90;;;;;;5109500;28;20032;-88
2024/02/08 10:39:23;;;;;;;4.55;2.28;;;11.30;99.90;;;;;;5103423;28;20017;-90
2024/02/08 10:44:29;;;;;;;3.83;1.83;;;11.80;99.90;;;;;;5105978;28;20079;-89
2024/02/08 10:47:09;;;;;;;3.75;1.77;;;11.40;99.90;;;;;;5110165;28;20035;-88
2024/02/08 10:49:42;;;;;;;4.17;2.07;;;11.50;99.90;;;;;;5123065;27;20055;-91
2024/02/08 10:52:15;;;;;;;2.67;1.90;;;11.60;99.90;;;;;;5106234;28;20267;-89
2024/02/08 10:54:48;;;;;;;3.13;1.83;;;11.60;99.90;;;;;;5104046;28;20028;-89
2024/02/08 10:57:39;;;;;;;6.45;2.45;;;11.40;99.90;;;;;;5104594;28;20023;-89
2024/02/08 11:03:08;;;;;;;4.10;1.80;;;11.40;99.90;;;;;;5110412;28;20046;-88
2024/02/08 11:08:33;;;;;;;3.97;1.77;;;12.50;99.90;;;;;;5103536;28;20069;-89
2024/02/08 11:11:03;;;;;;;3.80;1.70;;;11.50;99.90;;;;;;5105958;28;20016;-88
2024/02/08 11:13:37;;;;;;;6.43;2.00;;;12.00;99.90;;;;;;5110989;28;20028;-88
2024/02/08 11:16:20;;;;;;;2.95;1.38;;;11.40;99.90;;;;;;5109545;28;20024;-89
2024/02/08 11:18:51;;;;;;;4.68;1.92;;;11.40;99.90;;;;;;5105658;28;20020;-89
2024/02/08 11:21:19;;;;;;;5.78;1.90;;;11.60;99.90;;;;;;5107944;28;20024;-89
2024/02/08 11:23:52;;;;;;;10.15;1.77;;;12.40;99.90;;;;;;5106381;28;20016;-90
2024/02/08 11:26:19;;;;;;;6.47;1.92;;;12.60;99.90;;;;;;5107698;28;20032;-90
2024/02/08 11:28:44;;;;;;;10.50;1.98;;;11.60;99.90;;;;;;5106012;28;20050;-90
2024/02/08 11:31:16;;;;;;;10.52;2.30;;;12.30;99.90;;;;;;5107166;28;20012;-88
2024/02/08 11:33:49;;;;;;;11.50;2.45;;;11.60;99.90;;;;;;5105207;28;20016;-89
2024/02/08 11:36:22;;;;;;;10.63;2.45;;;11.60;99.90;;;;;;5109281;28;20045;-89
2024/02/08 11:38:57;;;;;;;7.45;2.47;;;11.70;99.90;;;;;;5106078;28;20082;-88
2024/02/08 11:41:26;;;;;;;15.43;2.72;;;12.70;99.90;;;;;;5107145;27;20016;-89
2024/02/08 11:44:02;;;;;;;14.82;2.55;;;11.80;99.90;;;;;;5107769;28;20020;-88
2024/02/08 11:46:37;;;;;;;12.70;2.83;;;12.20;99.90;;;;;;5108065;28;20012;-87
2024/02/08 11:49:14;;;;;;;13.50;2.80;;;13.10;99.90;;;;;;5106019;28;20039;-89
2024/02/08 11:51:41;;;;;;;24.00;3.38;;;12.00;99.90;;;;;;5106718;28;20092;-89
2024/02/08 11:54:09;;;;;;;20.67;4.13;;;13.10;99.90;;;;;;5106611;28;20028;-88
2024/02/08 11:56:35;;;;;;;15.63;3.30;;;12.00;99.90;;;;;;5107509;28;20078;-90
2024/02/08 11:59:05;;;;;;;16.52;3.67;;;12.10;99.90;;;;;;5110405;28;20109;-90
2024/02/08 12:01:32;;;;;;;20.50;4.00;;;12.30;99.90;;;;;;5109859;28;20076;-89
2024/02/08 12:03:59;;;;;;;17.98;3.60;;;12.00;99.90;;;;;;5108306;28;20051;-88
2024/02/08 12:06:26;;;;;;;14.00;4.03;;;12.90;99.90;;;;;;5105244;28;20051;-89
2024/02/08 12:09:05;;;;;;;25.27;4.15;;;12.10;99.90;;;;;;5103270;28;20012;-88
2024/02/08 12:11:34;;;;;;;16.52;3.42;;;12.00;99.90;;;;;;5101334;28;20040;-88
2024/02/08 12:14:06;;;;;;;15.80;3.45;;;12.00;99.90;;;;;;5106760;28;20032;-89
2024/02/08 12:16:33;;;;;;;24.85;4.32;;;12.60;99.90;;;;;;5103229;28;20019;-90
2024/02/08 12:19:05;;;;;;;19.02;4.03;;;11.80;99.90;;;;;;5089837;28;20028;-88
2024/02/08 12:21:35;;;;;;;23.77;4.43;;;12.10;99.90;;;;;;5104228;28;20008;-89
2024/02/08 12:24:04;;;;;;;17.98;4.38;;;12.00;99.90;;;;;;5101425;28;20012;-89
2024/02/08 12:26:33;;;;;;;17.00;3.97;;;12.00;99.90;;;;;;5105740;28;20044;-88
2024/02/08 12:29:03;;;;;;;19.75;3.63;;;12.10;99.90;;;;;;5101760;28;20008;-90
2024/02/08 12:31:32;;;;;;;17.73;3.83;;;12.30;99.90;;;;;;5091793;28;20047;-90
2024/02/08 12:34:03;;;;;;;16.05;3.42;;;12.10;99.90;;;;;;5104011;28;20024;-90
2024/02/08 12:36:31;;;;;;;17.48;3.85;;;12.10;99.90;;;;;;5101963;28;20012;-89
2024/02/08 12:39:00;;;;;;;23.10;3.78;;;12.10;99.90;;;;;;5107181;28;20034;-89
2024/02/08 12:41:29;;;;;;;27.80;4.50;;;12.10;99.90;;;;;;5105069;28;20021;-88
2024/02/08 12:43:56;;;;;;;25.75;4.15;;;13.10;99.90;;;;;;5105005;28;20028;-90
2024/02/08 12:46:23;;;;;;;25.98;4.32;;;12.20;99.90;;;;;;5103834;28;20097;-91
2024/02/08 12:48:49;;;;;;;18.27;4.00;;;12.20;99.90;;;;;;5107082;28;20032;-88
2024/02/08 12:51:22;;;;;;;17.90;3.78;;;12.30;99.90;;;;;;5103175;28;20032;-90
2024/02/08 12:53:56;;;;;;;18.05;3.72;;;12.40;99.90;;;;;;5106117;28;20008;-89
2024/02/08 12:56:22;;;;;;;19.15;4.45;;;12.30;99.90;;;;;;5102493;28;20088;-89
2024/02/08 12:59:01;;;;;;;19.67;4.60;;;12.40;99.90;;;;;;5103647;28;20455;-90
2024/02/08 13:01:48;;;;;;;21.05;4.53;;;13.50;99.90;;;;;;5106195;28;20035;-91
2024/02/08 13:04:16;;;;;;;18.42;3.92;;;12.20;99.90;;;;;;5101519;28;20056;-88
2024/02/08 13:06:42;;;;;;;28.38;5.00;;;12.30;99.90;;;;;;5102635;28;20023;-90
2024/02/08 13:09:25;;;;;;;20.65;4.93;;;12.20;99.90;;;;;;5107775;28;20008;-87
2024/02/08 13:12:14;;;;;;;23.75;5.90;;;12.20;99.90;;;;;;5106049;28;20036;-89
2024/02/08 13:14:56;;;;;;;54.30;20.27;;;12.20;99.90;;;;;;5106329;28;20017;-89
2024/02/08 13:17:26;;;;;;;22.15;5.97;;;12.20;99.90;;;;;;5103824;28;20051;-89
2024/02/08 13:19:55;;;;;;;19.40;4.65;;;12.40;99.90;;;;;;5102812;28;20008;-86
2024/02/08 13:22:24;;;;;;;26.70;9.10;;;12.20;99.90;;;;;;5105695;28;20058;-87
2024/02/08 13:24:54;;;;;;;35.58;12.75;;;12.10;99.90;;;;;;5107120;28;20055;-89
2024/02/08 13:27:28;;;;;;;33.83;11.05;;;13.30;99.90;;;;;;5099799;28;20225;-89
2024/02/08 13:29:54;;;;;;;28.83;11.32;;;12.40;99.90;;;;;;5102333;28;20020;-88
2024/02/08 13:32:29;;;;;;;21.00;5.68;;;12.00;99.90;;;;;;5102521;28;20125;-89
2024/02/08 13:34:57;;;;;;;27.33;9.35;;;13.20;99.90;;;;;;5103240;28;20032;-89
2024/02/08 13:37:23;;;;;;;31.83;10.25;;;11.90;99.90;;;;;;5103973;28;20020;-88
2024/02/08 13:40:03;;;;;;;19.23;5.30;;;12.00;99.90;;;;;;5100709;28;20032;-91
2024/02/08 13:42:32;;;;;;;28.85;7.53;;;12.00;99.90;;;;;;5102795;28;20023;-88
2024/02/08 13:45:01;;;;;;;15.97;5.60;;;11.90;99.90;;;;;;5104193;28;20046;-87
2024/02/08 13:47:31;;;;;;;21.65;6.15;;;12.20;99.90;;;;;;5107049;28;20020;-89
2024/02/08 13:49:57;;;;;;;17.92;5.10;;;13.00;99.90;;;;;;5103474;28;20024;-88
2024/02/08 13:52:26;;;;;;;26.15;5.88;;;11.80;99.90;;;;;;5101426;28;20020;-90
2024/02/08 13:54:52;;;;;;;25.45;7.28;;;10.40;99.90;;;;;;5103606;28;20048;-88
2024/02/08 13:57:19;;;;;;;30.40;9.70;;;13.10;99.90;;;;;;5111230;28;20047;-89
2024/02/08 13:59:48;;;;;;;50.35;20.90;;;11.80;99.90;;;;;;5094382;28;20008;-88
2024/02/08 14:02:18;;;;;;;30.55;11.82;;;13.00;99.90;;;;;;5104389;28;20031;-89
2024/02/08 14:04:55;;;;;;;21.08;6.28;;;11.80;99.90;;;;;;5111774;27;20091;-89
2024/02/08 14:07:30;;;;;;;23.90;4.90;;;11.90;99.90;;;;;;5109283;28;20016;-87
2024/02/08 14:09:59;;;;;;;19.27;4.38;;;11.90;99.90;;;;;;5109508;28;20020;-90
2024/02/08 14:12:26;;;;;;;19.23;4.55;;;11.80;99.90;;;;;;5109293;28;20032;-88
2024/02/08 14:14:54;;;;;;;22.90;5.15;;;11.70;99.90;;;;;;5109251;28;20024;-91
2024/02/08 14:17:27;;;;;;;19.15;4.78;;;10.60;99.90;;;;;;5104360;28;20092;-88
2024/02/08 14:19:55;;;;;;;24.08;5.78;;;11.80;99.90;;;;;;5103590;28;20219;-88
2024/02/08 14:22:25;;;;;;;17.05;4.63;;;11.80;99.90;;;;;;5106737;28;20025;-89
2024/02/08 14:24:53;;;;;;;18.23;5.43;;;12.30;99.90;;;;;;5107126;28;20088;-90
2024/02/08 14:27:23;;;;;;;22.30;5.25;;;13.00;99.90;;;;;;5108100;28;20029;-91
2024/02/08 14:29:50;;;;;;;25.38;5.82;;;12.70;99.90;;;;;;5108624;28;20016;-89
2024/02/08 14:32:16;;;;;;;25.25;6.32;;;13.10;99.90;;;;;;5109762;28;20019;-89
2024/02/08 14:34:43;;;;;;;18.83;5.43;;;11.80;99.90;;;;;;5108953;28;20016;-88
2024/02/08 14:37:10;;;;;;;17.42;5.05;;;12.90;99.90;;;;;;5111794;28;20012;-90
2024/02/08 14:39:36;;;;;;;19.13;5.53;;;12.40;99.90;;;;;;5112161;28;20029;-88
2024/02/08 14:42:17;;;;;;;15.07;5.30;;;13.20;99.90;;;;;;5109985;28;20021;-87
2024/02/08 14:44:44;;;;;;;16.00;4.63;;;11.80;99.90;;;;;;5106462;28;20019;-88
2024/02/08 14:47:25;;;;;;;19.05;5.38;;;11.70;99.90;;;;;;5112459;28;20092;-88
2024/02/08 14:49:59;;;;;;;23.38;6.35;;;12.10;99.90;;;;;;5112895;27;20158;-88
2024/02/08 14:52:28;;;;;;;19.42;6.07;;;11.70;99.90;;;;;;5096651;28;20016;-87
2024/02/08 14:54:58;;;;;;;17.42;5.05;;;12.70;99.90;;;;;;5107628;28;20047;-90
2024/02/08 14:57:38;;;;;;;21.80;7.30;;;12.60;99.90;;;;;;5103328;28;20047;-88
2024/02/08 15:00:49;;;;;;;29.63;7.45;;;11.70;99.90;;;;;;5106205;28;21665;-88
2024/02/08 15:03:07;;;;;;;13.88;5.68;;;11.70;99.90;;;;;;5111765;28;20012;-86
2024/02/08 15:06:31;;;;;;;23.55;7.03;;;11.70;99.90;;;;;;5106769;28;20096;-88
2024/02/08 15:11:03;;;;;;;19.90;6.45;;;12.10;99.90;;;;;;5108171;28;20016;-90
2024/02/08 15:13:49;;;;;;;19.50;6.55;;;11.80;99.90;;;;;;5108948;27;20025;-89
2024/02/08 15:16:21;;;;;;;13.07;6.00;;;11.70;99.90;;;;;;5101965;28;20024;-88
2024/02/08 15:18:48;;;;;;;18.77;6.93;;;13.10;99.90;;;;;;5104221;28;20023;-88
2024/02/08 15:21:15;;;;;;;19.73;6.72;;;13.40;99.90;;;;;;5106658;28;20116;-89
2024/02/08 15:24:18;;;;;;;20.83;6.40;;;12.80;99.90;;;;;;5103347;28;20020;-89
2024/02/08 15:26:37;;;;;;;19.77;5.45;;;12.80;99.90;;;;;;5110827;28;20195;-90
2024/02/08 15:29:19;;;;;;;20.02;6.55;;;12.70;99.90;;;;;;5127579;27;20040;-88
2024/02/08 15:42:09;;;;;;;15.10;5.38;;;13.20;99.90;;;;;;5109597;28;20012;-88
2024/02/08 15:45:11;;;;;;;23.33;5.97;;;11.90;99.90;;;;;;5108218;28;20028;-87
2024/02/08 15:47:34;;;;;;;24.50;6.18;;;11.90;99.90;;;;;;5105309;28;20028;-89
2024/02/08 15:49:59;;;;;;;18.73;5.10;;;11.90;99.90;;;;;;5103708;28;20032;-87
2024/02/08 15:52:29;;;;;;;21.00;5.95;;;12.30;99.90;;;;;;5109034;28;20016;-90
2024/02/08 15:54:55;;;;;;;20.13;5.82;;;12.70;99.90;;;;;;5108258;28;20047;-89
2024/02/08 15:57:29;;;;;;;17.38;4.60;;;10.90;99.90;;;;;;5104815;28;20016;-89
2024/02/08 15:59:57;;;;;;;18.80;5.85;;;11.90;99.90;;;;;;5105927;28;20008;-89
2024/02/08 16:02:34;;;;;;;20.88;5.30;;;11.90;99.90;;;;;;5107475;28;20059;-90
2024/02/08 16:05:13;;;;;;;20.23;5.18;;;12.00;99.90;;;;;;5102698;28;20044;-88
2024/02/08 16:07:42;;;;;;;18.40;4.82;;;13.40;99.90;;;;;;5108952;28;20016;-88
2024/02/08 16:10:24;;;;;;;17.48;5.55;;;13.10;99.90;;;;;;5103306;28;20039;-89
2024/02/08 16:13:04;;;;;;;19.55;5.18;;;12.50;99.90;;;;;;5102858;28;20032;-87
2024/02/08 16:15:49;;;;;;;19.30;4.78;;;11.80;99.90;;;;;;5104281;28;20063;-88
2024/02/08 16:18:29;;;;;;;16.70;5.15;;;11.80;99.90;;;;;;5108764;27;20028;-90
2024/02/08 16:20:55;;;;;;;19.92;5.53;;;11.70;99.90;;;;;;5098056;28;20040;-86
2024/02/08 16:23:26;;;;;;;19.42;5.68;;;11.70;99.90;;;;;;5106214;28;20031;-87
2024/02/08 16:28:30;;;;;;;18.52;3.78;;;13.00;99.90;;;;;;5098470;28;20016;-90
2024/02/08 16:33:41;;;;;;;19.63;4.43;;;12.70;99.90;;;;;;5104885;28;20084;-90
2024/02/08 16:41:48;;;;;;;15.27;4.35;;;12.20;99.90;;;;;;5103925;28;20031;-90
2024/02/08 16:44:21;;;;;;;19.80;4.65;;;11.80;99.90;;;;;;5086835;28;20013;-89
2024/02/08 16:46:55;;;;;;;21.20;4.80;;;11.80;99.90;;;;;;5103212;28;20023;-90
2024/02/08 16:49:27;;;;;;;22.80;4.95;;;12.30;99.90;;;;;;5100083;28;20028;-88
2024/02/08 16:52:21;;;;;;;17.33;4.00;;;11.60;99.90;;;;;;5105174;28;20096;-88
2024/02/08 16:55:11;;;;;;;12.38;4.82;;;11.70;99.90;;;;;;5092282;28;20066;-89
2024/02/08 16:57:40;;;;;;;24.90;9.45;;;12.90;99.90;;;;;;5100814;28;20043;-90
2024/02/08 17:00:48;;;;;;;20.77;5.75;;;11.60;99.90;;;;;;5100559;28;20032;-88
2024/02/08 17:03:17;;;;;;;20.90;6.45;;;11.60;99.90;;;;;;5100046;28;20024;-91
2024/02/08 17:05:53;;;;;;;18.75;5.28;;;11.80;99.90;;;;;;5102867;28;20046;-89
2024/02/08 17:12:00;;;;;;;19.15;5.78;;;11.60;99.90;;;;;;5041135;28;20017;-90
2024/02/08 17:14:33;;;;;;;13.80;4.03;;;11.70;99.90;;;;;;5099928;28;20012;-87
2024/02/08 17:17:35;;;;;;;51.30;21.05;;;11.70;99.90;;;;;;5097361;28;20024;-92
2024/02/08 17:20:03;;;;;;;18.92;5.18;;;11.60;99.90;;;;;;5095065;27;20056;-87
2024/02/08 17:22:48;;;;;;;16.42;4.20;;;11.50;99.90;;;;;;5097585;28;20020;-88
2024/02/08 17:30:36;;;;;;;18.05;4.38;;;11.80;99.90;;;;;;5096777;28;20036;-88
2024/02/08 17:33:11;;;;;;;20.63;9.38;;;12.60;99.90;;;;;;5099010;28;20012;-89
2024/02/08 17:35:38;;;;;;;21.50;6.45;;;11.80;99.90;;;;;;5090042;28;20028;-89
2024/02/08 17:38:05;;;;;;;15.77;3.80;;;11.70;99.90;;;;;;5099303;28;20053;-91
2024/02/08 17:40:31;;;;;;;18.20;4.53;;;11.70;99.90;;;;;;5099887;28;20031;-88
2024/02/08 17:43:00;;;;;;;19.70;4.50;;;13.00;99.90;;;;;;5106089;28;20020;-88
2024/02/08 17:48:13;;;;;;;15.68;5.00;;;11.70;99.90;;;;;;5105406;28;20057;-91
2024/02/08 17:51:11;;;;;;;21.95;5.88;;;11.80;99.90;;;;;;5100386;28;20021;-89
2024/02/08 17:53:44;;;;;;;17.77;4.32;;;11.60;99.90;;;;;;5029572;28;20021;-88
2024/02/08 17:56:19;;;;;;;13.23;4.03;;;11.60;99.90;;;;;;5104953;28;20040;-90
2024/02/08 17:58:45;;;;;;;16.05;4.35;;;11.70;99.90;;;;;;5097632;28;20076;-87
2024/02/08 18:01:15;;;;;;;16.48;4.70;;;11.70;99.90;;;;;;5102784;28;20044;-89
2024/02/08 18:03:46;;;;;;;14.48;4.32;;;12.30;99.90;;;;;;5098721;28;20025;-88
2024/02/08 18:06:16;;;;;;;;;;;11.40;99.90;;;;;;5097191;28;20111;-89
2024/02/08 18:08:42;;;;;;;15.82;4.68;;;11.70;99.90;;;;;;5095808;28;19976;-87
2024/02/08 18:11:09;;;;;;;16.02;4.05;;;12.40;99.90;;;;;;5093373;28;20028;-87
2024/02/08 18:13:37;;;;;;;13.15;3.97;;;11.70;99.90;;;;;;5098374;28;20111;-88
2024/02/08 18:16:12;;;;;;;16.27;4.53;;;11.70;99.90;;;;;;5098860;28;20088;-89
2024/02/08 18:18:40;;;;;;;19.80;4.65;;;11.70;99.90;;;;;;5083504;28;20016;-87
2024/02/08 18:21:13;;;;;;;13.40;3.85;;;12.00;99.90;;;;;;5087089;28;20043;-89
2024/02/08 18:23:45;;;;;;;16.38;3.92;;;11.70;99.90;;;;;;5102113;28;20039;-88
2024/02/08 18:26:27;;;;;;;13.40;4.00;;;11.80;99.90;;;;;;5098222;28;20031;-88
2024/02/08 18:28:54;;;;;;;16.33;4.35;;;11.80;99.90;;;;;;5100026;28;20012;-87
2024/02/08 18:31:20;;;;;;;13.77;4.07;;;11.70;99.90;;;;;;5101055;28;20058;-88
2024/02/08 18:33:49;;;;;;;11.85;3.58;;;10.80;99.90;;;;;;5101713;28;20139;-89
2024/02/08 18:36:15;;;;;;;18.92;4.15;;;11.60;99.90;;;;;;5098863;28;20124;-89
2024/02/08 18:38:42;;;;;;;14.65;4.07;;;11.70;99.90;;;;;;5102622;28;20017;-87